sensor_id;sensor_type;location;lat;lon;timestamp;P1;durP1;ratioP1;P2;durP2;ratioP2
1436;SDS011;712;51.026;13.792;2023-07-13T00:02:17;4.67;;;1.50;;
1436;SDS011;712;51.026;13.792;2023-07-13T00:04:43;3.50;;;1.30;;
1436;SDS011;712;51.026;13.792;2023-07-13T00:07:08;3.65;;;1.40;;
1436;SDS011;712;51.026;13.792;2023-07-13T00:09:33;5.45;;;1.30;;
1436;SDS011;712;51.026;13.792;2023-07-13T00:11:59;5.25;;;1.50;;
1436;SDS011;712;51.026;13.792;2023-07-13T00:14:24;3.30;;;1.40;;
1436;SDS011;712;51.026;13.792;2023-07-13T00:16:50;3.60;;;1.40;;
1436;SDS011;712;51.026;13.792;2023-07-13T00:19:15;3.30;;;1.40;;
1436;SDS011;712;51.026;13.792;2023-07-13T00:21:41;3.50;;;1.50;;
1436;SDS011;712;51.026;13.792;2023-07-13T00:24:07;5.55;;;1.38;;
1436;SDS011;712;51.026;13.792;2023-07-13T00:26:32;3.60;;;1.35;;
1436;SDS011;712;51.026;13.792;2023-07-13T00:28:58;3.38;;;1.30;;
1436;SDS011;712;51.026;13.792;2023-07-13T00:31:24;4.32;;;1.45;;
1436;SDS011;712;51.026;13.792;2023-07-13T00:33:49;6.07;;;1.65;;
1436;SDS011;712;51.026;13.792;2023-07-13T00:36:14;5.30;;;1.55;;
1436;SDS011;712;51.026;13.792;2023-07-13T00:38:40;3.88;;;1.60;;
1436;SDS011;712;51.026;13.792;2023-07-13T00:41:05;4.75;;;1.50;;
1436;SDS011;712;51.026;13.792;2023-07-13T00:43:30;4.60;;;2.13;;
1436;SDS011;712;51.026;13.792;2023-07-13T00:48:21;4.28;;;1.55;;
1436;SDS011;712;51.026;13.792;2023-07-13T00:50:50;5.35;;;1.63;;
1436;SDS011;712;51.026;13.792;2023-07-13T00:53:17;4.13;;;1.90;;
1436;SDS011;712;51.026;13.792;2023-07-13T00:55:42;4.55;;;1.85;;
1436;SDS011;712;51.026;13.792;2023-07-13T00:58:07;4.32;;;1.40;;
1436;SDS011;712;51.026;13.792;2023-07-13T01:00:35;4.50;;;1.90;;
1436;SDS011;712;51.026;13.792;2023-07-13T01:03:00;4.88;;;1.73;;
1436;SDS011;712;51.026;13.792;2023-07-13T01:05:29;6.00;;;2.17;;
1436;SDS011;712;51.026;13.792;2023-07-13T01:07:54;6.30;;;2.07;;
1436;SDS011;712;51.026;13.792;2023-07-13T01:12:45;7.03;;;2.00;;
1436;SDS011;712;51.026;13.792;2023-07-13T01:17:54;5.03;;;2.20;;
1436;SDS011;712;51.026;13.792;2023-07-13T01:20:20;7.43;;;2.55;;
1436;SDS011;712;51.026;13.792;2023-07-13T01:22:45;5.22;;;2.15;;
1436;SDS011;712;51.026;13.792;2023-07-13T01:25:10;4.90;;;2.20;;
1436;SDS011;712;51.026;13.792;2023-07-13T01:27:35;5.32;;;2.45;;
1436;SDS011;712;51.026;13.792;2023-07-13T01:30:01;6.45;;;2.35;;
1436;SDS011;712;51.026;13.792;2023-07-13T01:32:29;6.93;;;2.30;;
1436;SDS011;712;51.026;13.792;2023-07-13T01:34:56;5.35;;;2.17;;
1436;SDS011;712;51.026;13.792;2023-07-13T01:37:21;4.00;;;2.00;;
1436;SDS011;712;51.026;13.792;2023-07-13T01:39:47;7.15;;;2.38;;
1436;SDS011;712;51.026;13.792;2023-07-13T01:42:12;5.78;;;2.33;;
1436;SDS011;712;51.026;13.792;2023-07-13T01:44:38;5.20;;;2.10;;
1436;SDS011;712;51.026;13.792;2023-07-13T01:47:03;5.97;;;2.25;;
1436;SDS011;712;51.026;13.792;2023-07-13T01:49:28;5.35;;;2.70;;
1436;SDS011;712;51.026;13.792;2023-07-13T01:51:53;5.82;;;2.40;;
1436;SDS011;712;51.026;13.792;2023-07-13T01:54:19;5.50;;;2.23;;
1436;SDS011;712;51.026;13.792;2023-07-13T01:56:44;5.90;;;2.50;;
1436;SDS011;712;51.026;13.792;2023-07-13T01:59:09;5.32;;;2.40;;
1436;SDS011;712;51.026;13.792;2023-07-13T02:01:34;4.85;;;2.45;;
1436;SDS011;712;51.026;13.792;2023-07-13T02:04:00;5.28;;;2.50;;
1436;SDS011;712;51.026;13.792;2023-07-13T02:06:25;7.63;;;2.42;;
1436;SDS011;712;51.026;13.792;2023-07-13T02:08:50;5.70;;;2.70;;
1436;SDS011;712;51.026;13.792;2023-07-13T02:11:15;5.57;;;2.27;;
1436;SDS011;712;51.026;13.792;2023-07-13T02:13:40;6.13;;;2.63;;
1436;SDS011;712;51.026;13.792;2023-07-13T02:16:05;5.17;;;2.27;;
1436;SDS011;712;51.026;13.792;2023-07-13T02:18:31;4.30;;;2.25;;
1436;SDS011;712;51.026;13.792;2023-07-13T02:20:56;5.73;;;2.27;;
1436;SDS011;712;51.026;13.792;2023-07-13T02:23:21;5.47;;;2.47;;
1436;SDS011;712;51.026;13.792;2023-07-13T02:25:47;5.07;;;2.20;;
1436;SDS011;712;51.026;13.792;2023-07-13T02:28:12;5.85;;;2.85;;
1436;SDS011;712;51.026;13.792;2023-07-13T02:30:37;6.93;;;2.80;;
1436;SDS011;712;51.026;13.792;2023-07-13T02:33:03;4.57;;;2.35;;
1436;SDS011;712;51.026;13.792;2023-07-13T02:35:28;7.13;;;2.40;;
1436;SDS011;712;51.026;13.792;2023-07-13T02:37:53;5.28;;;2.47;;
1436;SDS011;712;51.026;13.792;2023-07-13T02:40:18;5.73;;;2.77;;
1436;SDS011;712;51.026;13.792;2023-07-13T02:42:44;6.80;;;2.80;;
1436;SDS011;712;51.026;13.792;2023-07-13T02:45:09;6.80;;;2.80;;
1436;SDS011;712;51.026;13.792;2023-07-13T02:47:34;7.30;;;2.70;;
1436;SDS011;712;51.026;13.792;2023-07-13T02:49:59;6.45;;;2.75;;
1436;SDS011;712;51.026;13.792;2023-07-13T02:52:25;7.10;;;3.28;;
1436;SDS011;712;51.026;13.792;2023-07-13T02:54:50;5.40;;;2.63;;
1436;SDS011;712;51.026;13.792;2023-07-13T02:57:15;6.33;;;3.20;;
1436;SDS011;712;51.026;13.792;2023-07-13T02:59:40;5.82;;;3.08;;
1436;SDS011;712;51.026;13.792;2023-07-13T03:02:05;7.35;;;2.72;;
1436;SDS011;712;51.026;13.792;2023-07-13T03:04:30;6.95;;;2.80;;
1436;SDS011;712;51.026;13.792;2023-07-13T03:06:56;7.53;;;2.63;;
1436;SDS011;712;51.026;13.792;2023-07-13T03:09:23;7.35;;;3.70;;
1436;SDS011;712;51.026;13.792;2023-07-13T03:11:48;9.95;;;3.70;;
1436;SDS011;712;51.026;13.792;2023-07-13T03:14:13;6.38;;;2.75;;
1436;SDS011;712;51.026;13.792;2023-07-13T03:16:38;5.40;;;2.70;;
1436;SDS011;712;51.026;13.792;2023-07-13T03:19:03;5.47;;;2.77;;
1436;SDS011;712;51.026;13.792;2023-07-13T03:21:29;7.50;;;3.40;;
1436;SDS011;712;51.026;13.792;2023-07-13T03:23:54;7.60;;;3.50;;
1436;SDS011;712;51.026;13.792;2023-07-13T03:26:19;8.25;;;3.30;;
1436;SDS011;712;51.026;13.792;2023-07-13T03:28:45;6.07;;;3.03;;
1436;SDS011;712;51.026;13.792;2023-07-13T03:31:14;5.27;;;2.83;;
1436;SDS011;712;51.026;13.792;2023-07-13T03:33:40;7.93;;;2.95;;
1436;SDS011;712;51.026;13.792;2023-07-13T03:36:06;10.23;;;3.20;;
1436;SDS011;712;51.026;13.792;2023-07-13T03:40:56;6.90;;;2.85;;
1436;SDS011;712;51.026;13.792;2023-07-13T03:43:21;5.80;;;2.70;;
1436;SDS011;712;51.026;13.792;2023-07-13T03:45:47;5.60;;;3.40;;
1436;SDS011;712;51.026;13.792;2023-07-13T03:48:12;5.47;;;2.55;;
1436;SDS011;712;51.026;13.792;2023-07-13T03:50:37;6.75;;;3.05;;
1436;SDS011;712;51.026;13.792;2023-07-13T03:53:03;5.72;;;2.85;;
1436;SDS011;712;51.026;13.792;2023-07-13T03:55:28;6.15;;;2.67;;
1436;SDS011;712;51.026;13.792;2023-07-13T03:57:54;5.85;;;3.03;;
1436;SDS011;712;51.026;13.792;2023-07-13T04:00:22;8.23;;;3.40;;
1436;SDS011;712;51.026;13.792;2023-07-13T04:02:47;6.37;;;2.70;;
1436;SDS011;712;51.026;13.792;2023-07-13T04:05:14;5.65;;;2.45;;
1436;SDS011;712;51.026;13.792;2023-07-13T04:07:39;7.60;;;3.45;;
1436;SDS011;712;51.026;13.792;2023-07-13T04:10:05;7.45;;;3.20;;
1436;SDS011;712;51.026;13.792;2023-07-13T04:12:30;5.05;;;2.90;;
1436;SDS011;712;51.026;13.792;2023-07-13T04:14:55;5.85;;;2.95;;
1436;SDS011;712;51.026;13.792;2023-07-13T04:17:20;7.55;;;2.97;;
1436;SDS011;712;51.026;13.792;2023-07-13T04:19:45;7.18;;;2.75;;
1436;SDS011;712;51.026;13.792;2023-07-13T04:22:10;9.13;;;3.03;;
1436;SDS011;712;51.026;13.792;2023-07-13T04:24:36;6.07;;;2.95;;
1436;SDS011;712;51.026;13.792;2023-07-13T04:27:01;5.18;;;2.42;;
1436;SDS011;712;51.026;13.792;2023-07-13T04:29:27;7.95;;;3.00;;
1436;SDS011;712;51.026;13.792;2023-07-13T04:31:53;5.80;;;3.00;;
1436;SDS011;712;51.026;13.792;2023-07-13T04:34:18;5.45;;;2.38;;
1436;SDS011;712;51.026;13.792;2023-07-13T04:36:43;4.37;;;2.17;;
1436;SDS011;712;51.026;13.792;2023-07-13T04:39:08;6.03;;;2.40;;
1436;SDS011;712;51.026;13.792;2023-07-13T04:41:33;6.60;;;2.90;;
1436;SDS011;712;51.026;13.792;2023-07-13T04:43:58;5.28;;;2.33;;
1436;SDS011;712;51.026;13.792;2023-07-13T04:46:24;6.53;;;2.47;;
1436;SDS011;712;51.026;13.792;2023-07-13T04:48:49;4.63;;;2.50;;
1436;SDS011;712;51.026;13.792;2023-07-13T04:51:15;6.45;;;3.17;;
1436;SDS011;712;51.026;13.792;2023-07-13T04:53:41;6.80;;;2.80;;
1436;SDS011;712;51.026;13.792;2023-07-13T04:56:06;5.83;;;2.50;;
1436;SDS011;712;51.026;13.792;2023-07-13T04:58:32;6.37;;;2.80;;
1436;SDS011;712;51.026;13.792;2023-07-13T05:01:02;5.43;;;2.80;;
1436;SDS011;712;51.026;13.792;2023-07-13T05:03:27;4.90;;;2.60;;
1436;SDS011;712;51.026;13.792;2023-07-13T05:05:59;4.78;;;2.47;;
1436;SDS011;712;51.026;13.792;2023-07-13T05:08:25;4.70;;;2.45;;
1436;SDS011;712;51.026;13.792;2023-07-13T05:10:50;8.25;;;3.10;;
1436;SDS011;712;51.026;13.792;2023-07-13T05:13:16;6.07;;;2.80;;
1436;SDS011;712;51.026;13.792;2023-07-13T05:15:41;5.78;;;2.40;;
1436;SDS011;712;51.026;13.792;2023-07-13T05:18:06;6.20;;;2.75;;
1436;SDS011;712;51.026;13.792;2023-07-13T05:20:31;5.72;;;2.95;;
1436;SDS011;712;51.026;13.792;2023-07-13T05:22:57;5.73;;;3.10;;
1436;SDS011;712;51.026;13.792;2023-07-13T05:25:22;6.35;;;2.47;;
1436;SDS011;712;51.026;13.792;2023-07-13T05:27:47;6.43;;;2.70;;
1436;SDS011;712;51.026;13.792;2023-07-13T05:30:13;10.23;;;3.17;;
1436;SDS011;712;51.026;13.792;2023-07-13T05:32:38;7.80;;;3.88;;
1436;SDS011;712;51.026;13.792;2023-07-13T05:35:04;8.60;;;3.20;;
1436;SDS011;712;51.026;13.792;2023-07-13T05:37:29;6.07;;;2.90;;
1436;SDS011;712;51.026;13.792;2023-07-13T05:39:54;5.35;;;2.95;;
1436;SDS011;712;51.026;13.792;2023-07-13T05:42:19;6.73;;;2.80;;
1436;SDS011;712;51.026;13.792;2023-07-13T05:44:44;9.88;;;3.25;;
1436;SDS011;712;51.026;13.792;2023-07-13T05:47:09;6.22;;;2.80;;
1436;SDS011;712;51.026;13.792;2023-07-13T05:49:35;5.30;;;2.80;;
1436;SDS011;712;51.026;13.792;2023-07-13T05:52:00;5.75;;;2.88;;
1436;SDS011;712;51.026;13.792;2023-07-13T05:54:25;5.75;;;2.50;;
1436;SDS011;712;51.026;13.792;2023-07-13T05:56:50;5.57;;;2.80;;
1436;SDS011;712;51.026;13.792;2023-07-13T05:59:15;7.10;;;2.63;;
1436;SDS011;712;51.026;13.792;2023-07-13T06:04:07;7.40;;;2.80;;
1436;SDS011;712;51.026;13.792;2023-07-13T06:06:32;6.53;;;2.90;;
1436;SDS011;712;51.026;13.792;2023-07-13T06:08:57;6.55;;;2.90;;
1436;SDS011;712;51.026;13.792;2023-07-13T06:11:23;6.10;;;2.43;;
1436;SDS011;712;51.026;13.792;2023-07-13T06:13:49;7.05;;;2.90;;
1436;SDS011;712;51.026;13.792;2023-07-13T06:16:14;8.13;;;3.13;;
1436;SDS011;712;51.026;13.792;2023-07-13T06:18:40;5.15;;;2.80;;
1436;SDS011;712;51.026;13.792;2023-07-13T06:21:16;8.77;;;3.53;;
1436;SDS011;712;51.026;13.792;2023-07-13T06:23:41;9.23;;;3.80;;
1436;SDS011;712;51.026;13.792;2023-07-13T06:26:07;9.07;;;3.22;;
1436;SDS011;712;51.026;13.792;2023-07-13T06:28:32;5.38;;;2.72;;
1436;SDS011;712;51.026;13.792;2023-07-13T06:30:58;7.97;;;2.85;;
1436;SDS011;712;51.026;13.792;2023-07-13T06:33:23;6.82;;;2.80;;
1436;SDS011;712;51.026;13.792;2023-07-13T06:35:48;6.60;;;2.50;;
1436;SDS011;712;51.026;13.792;2023-07-13T06:38:13;6.40;;;2.50;;
1436;SDS011;712;51.026;13.792;2023-07-13T06:40:39;6.50;;;2.20;;
1436;SDS011;712;51.026;13.792;2023-07-13T06:43:04;5.77;;;2.60;;
1436;SDS011;712;51.026;13.792;2023-07-13T06:45:29;6.05;;;2.25;;
1436;SDS011;712;51.026;13.792;2023-07-13T06:47:54;11.00;;;2.40;;
1436;SDS011;712;51.026;13.792;2023-07-13T06:50:19;4.63;;;2.10;;
1436;SDS011;712;51.026;13.792;2023-07-13T06:52:45;5.43;;;2.22;;
1436;SDS011;712;51.026;13.792;2023-07-13T06:57:35;6.90;;;1.92;;
1436;SDS011;712;51.026;13.792;2023-07-13T07:00:00;5.03;;;2.00;;
1436;SDS011;712;51.026;13.792;2023-07-13T07:02:25;6.85;;;2.00;;
1436;SDS011;712;51.026;13.792;2023-07-13T07:07:16;6.93;;;2.28;;
1436;SDS011;712;51.026;13.792;2023-07-13T07:09:41;6.53;;;2.10;;
1436;SDS011;712;51.026;13.792;2023-07-13T07:12:06;6.53;;;2.03;;
1436;SDS011;712;51.026;13.792;2023-07-13T07:14:31;4.68;;;1.83;;
1436;SDS011;712;51.026;13.792;2023-07-13T07:16:57;6.05;;;2.15;;
1436;SDS011;712;51.026;13.792;2023-07-13T07:19:23;5.50;;;1.83;;
1436;SDS011;712;51.026;13.792;2023-07-13T07:21:48;4.90;;;1.67;;
1436;SDS011;712;51.026;13.792;2023-07-13T07:26:40;4.50;;;1.80;;
1436;SDS011;712;51.026;13.792;2023-07-13T07:29:05;8.70;;;2.20;;
1436;SDS011;712;51.026;13.792;2023-07-13T07:31:30;4.43;;;1.70;;
1436;SDS011;712;51.026;13.792;2023-07-13T07:33:56;5.03;;;1.73;;
1436;SDS011;712;51.026;13.792;2023-07-13T07:36:21;4.95;;;1.88;;
1436;SDS011;712;51.026;13.792;2023-07-13T07:38:46;5.93;;;1.75;;
1436;SDS011;712;51.026;13.792;2023-07-13T07:41:11;7.53;;;2.00;;
1436;SDS011;712;51.026;13.792;2023-07-13T07:43:36;3.90;;;1.52;;
1436;SDS011;712;51.026;13.792;2023-07-13T07:46:02;7.53;;;1.90;;
1436;SDS011;712;51.026;13.792;2023-07-13T07:48:27;4.38;;;1.65;;
1436;SDS011;712;51.026;13.792;2023-07-13T07:53:17;4.50;;;1.50;;
1436;SDS011;712;51.026;13.792;2023-07-13T07:55:42;5.27;;;1.80;;
1436;SDS011;712;51.026;13.792;2023-07-13T07:58:08;4.65;;;1.63;;
1436;SDS011;712;51.026;13.792;2023-07-13T08:00:33;6.45;;;1.58;;
1436;SDS011;712;51.026;13.792;2023-07-13T08:03:00;4.88;;;1.40;;
1436;SDS011;712;51.026;13.792;2023-07-13T08:05:25;4.97;;;1.40;;
1436;SDS011;712;51.026;13.792;2023-07-13T08:10:16;6.75;;;1.73;;
1436;SDS011;712;51.026;13.792;2023-07-13T08:15:09;5.93;;;1.40;;
1436;SDS011;712;51.026;13.792;2023-07-13T08:17:34;5.43;;;1.60;;
1436;SDS011;712;51.026;13.792;2023-07-13T08:20:00;4.47;;;1.30;;
1436;SDS011;712;51.026;13.792;2023-07-13T08:22:25;4.07;;;1.50;;
1436;SDS011;712;51.026;13.792;2023-07-13T08:24:50;5.03;;;1.75;;
1436;SDS011;712;51.026;13.792;2023-07-13T08:27:21;4.80;;;1.42;;
1436;SDS011;712;51.026;13.792;2023-07-13T08:29:47;3.97;;;1.30;;
1436;SDS011;712;51.026;13.792;2023-07-13T08:34:37;4.37;;;1.30;;
1436;SDS011;712;51.026;13.792;2023-07-13T08:37:02;3.80;;;1.20;;
1436;SDS011;712;51.026;13.792;2023-07-13T08:39:28;3.80;;;1.50;;
1436;SDS011;712;51.026;13.792;2023-07-13T08:41:54;4.53;;;1.50;;
1436;SDS011;712;51.026;13.792;2023-07-13T08:44:25;5.85;;;1.70;;
1436;SDS011;712;51.026;13.792;2023-07-13T08:46:52;4.38;;;1.30;;
1436;SDS011;712;51.026;13.792;2023-07-13T08:49:19;4.13;;;1.50;;
1436;SDS011;712;51.026;13.792;2023-07-13T08:51:49;5.18;;;1.48;;
1436;SDS011;712;51.026;13.792;2023-07-13T08:54:23;5.72;;;1.40;;
1436;SDS011;712;51.026;13.792;2023-07-13T08:56:51;4.45;;;1.20;;
1436;SDS011;712;51.026;13.792;2023-07-13T08:59:18;3.72;;;1.52;;
1436;SDS011;712;51.026;13.792;2023-07-13T09:01:51;4.13;;;1.20;;
1436;SDS011;712;51.026;13.792;2023-07-13T09:04:21;6.85;;;1.83;;
1436;SDS011;712;51.026;13.792;2023-07-13T09:12:07;5.10;;;1.80;;
1436;SDS011;712;51.026;13.792;2023-07-13T09:14:36;5.13;;;1.38;;
1436;SDS011;712;51.026;13.792;2023-07-13T09:17:08;5.30;;;1.60;;
1436;SDS011;712;51.026;13.792;2023-07-13T09:19:35;6.03;;;1.58;;
1436;SDS011;712;51.026;13.792;2023-07-13T09:22:01;3.65;;;1.48;;
1436;SDS011;712;51.026;13.792;2023-07-13T09:24:28;3.53;;;1.25;;
1436;SDS011;712;51.026;13.792;2023-07-13T09:26:55;3.95;;;1.40;;
1436;SDS011;712;51.026;13.792;2023-07-13T09:29:24;4.85;;;1.35;;
1436;SDS011;712;51.026;13.792;2023-07-13T09:31:52;5.25;;;1.35;;
1436;SDS011;712;51.026;13.792;2023-07-13T09:34:18;4.15;;;1.30;;
1436;SDS011;712;51.026;13.792;2023-07-13T09:36:43;5.47;;;1.38;;
1436;SDS011;712;51.026;13.792;2023-07-13T09:41:47;5.03;;;1.75;;
1436;SDS011;712;51.026;13.792;2023-07-13T09:44:16;4.22;;;1.45;;
1436;SDS011;712;51.026;13.792;2023-07-13T09:46:46;4.75;;;1.67;;
1436;SDS011;712;51.026;13.792;2023-07-13T09:49:12;4.35;;;1.50;;
1436;SDS011;712;51.026;13.792;2023-07-13T09:51:38;4.40;;;1.43;;
1436;SDS011;712;51.026;13.792;2023-07-13T09:54:04;4.07;;;1.52;;
1436;SDS011;712;51.026;13.792;2023-07-13T09:56:29;4.53;;;1.60;;
1436;SDS011;712;51.026;13.792;2023-07-13T10:01:38;3.22;;;1.20;;
1436;SDS011;712;51.026;13.792;2023-07-13T10:04:12;4.45;;;1.30;;
1436;SDS011;712;51.026;13.792;2023-07-13T10:06:38;6.80;;;1.48;;
1436;SDS011;712;51.026;13.792;2023-07-13T10:09:04;7.70;;;1.48;;
1436;SDS011;712;51.026;13.792;2023-07-13T10:11:34;4.38;;;1.20;;
1436;SDS011;712;51.026;13.792;2023-07-13T10:14:00;4.57;;;1.25;;
1436;SDS011;712;51.026;13.792;2023-07-13T10:16:28;6.78;;;1.50;;
1436;SDS011;712;51.026;13.792;2023-07-13T10:18:58;5.03;;;1.60;;
1436;SDS011;712;51.026;13.792;2023-07-13T10:21:36;3.97;;;1.20;;
1436;SDS011;712;51.026;13.792;2023-07-13T10:24:06;4.55;;;1.45;;
1436;SDS011;712;51.026;13.792;2023-07-13T10:26:45;5.57;;;1.35;;
1436;SDS011;712;51.026;13.792;2023-07-13T10:29:11;4.45;;;1.50;;
1436;SDS011;712;51.026;13.792;2023-07-13T10:31:37;5.15;;;1.60;;
1436;SDS011;712;51.026;13.792;2023-07-13T10:36:31;3.47;;;1.30;;
1436;SDS011;712;51.026;13.792;2023-07-13T10:38:59;5.32;;;1.60;;
1436;SDS011;712;51.026;13.792;2023-07-13T10:41:25;5.07;;;1.45;;
1436;SDS011;712;51.026;13.792;2023-07-13T10:46:17;4.53;;;1.45;;
1436;SDS011;712;51.026;13.792;2023-07-13T10:48:43;3.40;;;1.20;;
1436;SDS011;712;51.026;13.792;2023-07-13T10:51:09;3.78;;;1.60;;
1436;SDS011;712;51.026;13.792;2023-07-13T10:53:36;3.88;;;1.30;;
1436;SDS011;712;51.026;13.792;2023-07-13T10:56:05;3.78;;;1.40;;
1436;SDS011;712;51.026;13.792;2023-07-13T10:58:37;4.88;;;1.30;;
1436;SDS011;712;51.026;13.792;2023-07-13T11:06:03;3.65;;;1.10;;
1436;SDS011;712;51.026;13.792;2023-07-13T11:13:37;5.37;;;1.20;;
1436;SDS011;712;51.026;13.792;2023-07-13T11:16:48;5.63;;;1.30;;
1436;SDS011;712;51.026;13.792;2023-07-13T11:18:49;4.22;;;1.13;;
1436;SDS011;712;51.026;13.792;2023-07-13T11:23:41;3.40;;;1.08;;
1436;SDS011;712;51.026;13.792;2023-07-13T11:26:37;4.05;;;1.30;;
1436;SDS011;712;51.026;13.792;2023-07-13T11:28:52;4.05;;;1.25;;
1436;SDS011;712;51.026;13.792;2023-07-13T11:33:49;7.22;;;1.08;;
1436;SDS011;712;51.026;13.792;2023-07-13T11:36:16;4.40;;;1.40;;
1436;SDS011;712;51.026;13.792;2023-07-13T11:38:42;3.88;;;1.20;;
1436;SDS011;712;51.026;13.792;2023-07-13T11:41:21;4.07;;;1.27;;
1436;SDS011;712;51.026;13.792;2023-07-13T11:43:51;5.57;;;1.33;;
1436;SDS011;712;51.026;13.792;2023-07-13T11:46:21;5.25;;;1.42;;
1436;SDS011;712;51.026;13.792;2023-07-13T11:48:47;5.45;;;1.30;;
1436;SDS011;712;51.026;13.792;2023-07-13T11:51:22;4.90;;;1.20;;
1436;SDS011;712;51.026;13.792;2023-07-13T11:53:49;5.40;;;1.77;;
1436;SDS011;712;51.026;13.792;2023-07-13T11:56:15;4.18;;;1.20;;
1436;SDS011;712;51.026;13.792;2023-07-13T12:01:05;5.82;;;1.50;;
1436;SDS011;712;51.026;13.792;2023-07-13T12:05:56;5.70;;;1.42;;
1436;SDS011;712;51.026;13.792;2023-07-13T12:08:22;6.32;;;1.52;;
1436;SDS011;712;51.026;13.792;2023-07-13T12:10:47;5.03;;;1.37;;
1436;SDS011;712;51.026;13.792;2023-07-13T12:13:13;5.30;;;1.70;;
1436;SDS011;712;51.026;13.792;2023-07-13T12:18:10;4.22;;;1.40;;
1436;SDS011;712;51.026;13.792;2023-07-13T12:20:37;4.97;;;1.23;;
1436;SDS011;712;51.026;13.792;2023-07-13T12:23:04;6.03;;;1.70;;
1436;SDS011;712;51.026;13.792;2023-07-13T12:25:30;4.80;;;1.50;;
1436;SDS011;712;51.026;13.792;2023-07-13T12:27:55;5.47;;;1.48;;
1436;SDS011;712;51.026;13.792;2023-07-13T12:30:25;4.73;;;1.30;;
1436;SDS011;712;51.026;13.792;2023-07-13T12:33:06;4.43;;;1.20;;
1436;SDS011;712;51.026;13.792;2023-07-13T12:35:39;5.82;;;1.25;;
1436;SDS011;712;51.026;13.792;2023-07-13T12:38:04;4.95;;;1.40;;
1436;SDS011;712;51.026;13.792;2023-07-13T12:40:33;6.07;;;1.40;;
1436;SDS011;712;51.026;13.792;2023-07-13T12:42:59;5.28;;;1.40;;
1436;SDS011;712;51.026;13.792;2023-07-13T12:47:52;4.30;;;1.40;;
1436;SDS011;712;51.026;13.792;2023-07-13T12:50:19;5.35;;;1.65;;
1436;SDS011;712;51.026;13.792;2023-07-13T12:52:49;5.18;;;1.27;;
1436;SDS011;712;51.026;13.792;2023-07-13T12:55:17;4.85;;;1.30;;
1436;SDS011;712;51.026;13.792;2023-07-13T12:57:53;5.80;;;1.20;;
1436;SDS011;712;51.026;13.792;2023-07-13T13:00:20;4.57;;;1.27;;
1436;SDS011;712;51.026;13.792;2023-07-13T13:02:48;4.03;;;1.20;;
1436;SDS011;712;51.026;13.792;2023-07-13T13:05:14;4.75;;;1.20;;
1436;SDS011;712;51.026;13.792;2023-07-13T13:10:11;7.18;;;1.63;;
1436;SDS011;712;51.026;13.792;2023-07-13T13:12:36;4.93;;;1.20;;
1436;SDS011;712;51.026;13.792;2023-07-13T13:17:28;4.80;;;1.30;;
1436;SDS011;712;51.026;13.792;2023-07-13T13:19:54;4.57;;;1.20;;
1436;SDS011;712;51.026;13.792;2023-07-13T13:24:44;11.85;;;1.67;;
1436;SDS011;712;51.026;13.792;2023-07-13T13:29:36;4.43;;;1.30;;
1436;SDS011;712;51.026;13.792;2023-07-13T13:32:02;4.20;;;1.27;;
1436;SDS011;712;51.026;13.792;2023-07-13T13:34:30;4.82;;;1.30;;
1436;SDS011;712;51.026;13.792;2023-07-13T13:41:49;4.25;;;1.33;;
1436;SDS011;712;51.026;13.792;2023-07-13T13:44:15;5.80;;;1.40;;
1436;SDS011;712;51.026;13.792;2023-07-13T13:46:41;4.15;;;1.20;;
1436;SDS011;712;51.026;13.792;2023-07-13T13:51:31;3.58;;;1.10;;
1436;SDS011;712;51.026;13.792;2023-07-13T13:56:22;3.45;;;1.20;;
1436;SDS011;712;51.026;13.792;2023-07-13T14:01:13;3.65;;;1.13;;
1436;SDS011;712;51.026;13.792;2023-07-13T14:03:41;4.10;;;1.15;;
1436;SDS011;712;51.026;13.792;2023-07-13T14:08:31;6.53;;;1.25;;
1436;SDS011;712;51.026;13.792;2023-07-13T14:13:28;5.70;;;1.77;;
1436;SDS011;712;51.026;13.792;2023-07-13T14:15:55;6.03;;;1.20;;
1436;SDS011;712;51.026;13.792;2023-07-13T14:20:46;6.15;;;1.33;;
1436;SDS011;712;51.026;13.792;2023-07-13T14:25:36;3.72;;;1.20;;
1436;SDS011;712;51.026;13.792;2023-07-13T14:30:32;3.67;;;1.10;;
1436;SDS011;712;51.026;13.792;2023-07-13T14:35:23;3.95;;;1.25;;
1436;SDS011;712;51.026;13.792;2023-07-13T14:40:14;4.45;;;1.33;;
1436;SDS011;712;51.026;13.792;2023-07-13T14:42:39;4.63;;;1.13;;
1436;SDS011;712;51.026;13.792;2023-07-13T14:47:30;4.13;;;1.30;;
1436;SDS011;712;51.026;13.792;2023-07-13T14:52:21;4.05;;;1.30;;
1436;SDS011;712;51.026;13.792;2023-07-13T14:54:47;4.85;;;1.20;;
1436;SDS011;712;51.026;13.792;2023-07-13T14:59:38;4.10;;;1.27;;
1436;SDS011;712;51.026;13.792;2023-07-13T15:04:29;5.38;;;1.35;;
1436;SDS011;712;51.026;13.792;2023-07-13T15:09:19;6.63;;;1.52;;
1436;SDS011;712;51.026;13.792;2023-07-13T15:14:10;4.78;;;1.55;;
1436;SDS011;712;51.026;13.792;2023-07-13T15:19:00;5.15;;;1.15;;
1436;SDS011;712;51.026;13.792;2023-07-13T15:21:27;5.45;;;1.25;;
1436;SDS011;712;51.026;13.792;2023-07-13T15:23:59;4.68;;;1.30;;
1436;SDS011;712;51.026;13.792;2023-07-13T15:28:49;3.25;;;1.10;;
1436;SDS011;712;51.026;13.792;2023-07-13T15:31:21;4.83;;;1.10;;
1436;SDS011;712;51.026;13.792;2023-07-13T15:33:47;2.83;;;0.98;;
1436;SDS011;712;51.026;13.792;2023-07-13T15:36:14;4.20;;;1.00;;
1436;SDS011;712;51.026;13.792;2023-07-13T15:41:16;3.72;;;0.90;;
1436;SDS011;712;51.026;13.792;2023-07-13T15:43:41;3.90;;;1.20;;
1436;SDS011;712;51.026;13.792;2023-07-13T15:48:31;5.13;;;1.00;;
1436;SDS011;712;51.026;13.792;2023-07-13T15:53:23;5.03;;;1.05;;
1436;SDS011;712;51.026;13.792;2023-07-13T15:55:49;3.35;;;0.80;;
1436;SDS011;712;51.026;13.792;2023-07-13T16:00:40;6.20;;;1.00;;
1436;SDS011;712;51.026;13.792;2023-07-13T16:03:06;3.13;;;0.80;;
1436;SDS011;712;51.026;13.792;2023-07-13T16:05:32;3.33;;;0.77;;
1436;SDS011;712;51.026;13.792;2023-07-13T16:10:24;3.17;;;1.00;;
1436;SDS011;712;51.026;13.792;2023-07-13T16:12:51;4.90;;;1.00;;
1436;SDS011;712;51.026;13.792;2023-07-13T16:17:42;2.87;;;0.73;;
1436;SDS011;712;51.026;13.792;2023-07-13T16:20:07;3.65;;;1.10;;
1436;SDS011;712;51.026;13.792;2023-07-13T16:22:36;4.65;;;0.82;;
1436;SDS011;712;51.026;13.792;2023-07-13T16:27:31;3.35;;;0.90;;
1436;SDS011;712;51.026;13.792;2023-07-13T16:29:58;3.40;;;0.90;;
1436;SDS011;712;51.026;13.792;2023-07-13T16:34:50;3.20;;;0.90;;
1436;SDS011;712;51.026;13.792;2023-07-13T16:37:22;2.80;;;0.70;;
1436;SDS011;712;51.026;13.792;2023-07-13T16:39:52;4.55;;;0.90;;
1436;SDS011;712;51.026;13.792;2023-07-13T16:42:18;4.93;;;0.90;;
1436;SDS011;712;51.026;13.792;2023-07-13T16:44:43;6.18;;;1.00;;
1436;SDS011;712;51.026;13.792;2023-07-13T16:47:11;4.63;;;1.13;;
1436;SDS011;712;51.026;13.792;2023-07-13T16:49:37;3.90;;;1.10;;
1436;SDS011;712;51.026;13.792;2023-07-13T16:54:32;4.10;;;1.50;;
1436;SDS011;712;51.026;13.792;2023-07-13T16:56:58;5.60;;;1.50;;
1436;SDS011;712;51.026;13.792;2023-07-13T16:59:24;4.32;;;1.50;;
1436;SDS011;712;51.026;13.792;2023-07-13T17:01:52;5.03;;;1.77;;
1436;SDS011;712;51.026;13.792;2023-07-13T17:04:17;4.93;;;1.70;;
1436;SDS011;712;51.026;13.792;2023-07-13T17:06:45;5.60;;;1.70;;
1436;SDS011;712;51.026;13.792;2023-07-13T17:11:38;5.00;;;1.67;;
1436;SDS011;712;51.026;13.792;2023-07-13T17:14:08;5.03;;;1.52;;
1436;SDS011;712;51.026;13.792;2023-07-13T17:16:35;6.80;;;1.92;;
1436;SDS011;712;51.026;13.792;2023-07-13T17:19:00;5.78;;;1.90;;
1436;SDS011;712;51.026;13.792;2023-07-13T17:21:26;7.40;;;2.10;;
1436;SDS011;712;51.026;13.792;2023-07-13T17:23:52;5.97;;;1.80;;
1436;SDS011;712;51.026;13.792;2023-07-13T17:26:17;5.10;;;1.60;;
1436;SDS011;712;51.026;13.792;2023-07-13T17:31:09;5.50;;;1.50;;
1436;SDS011;712;51.026;13.792;2023-07-13T17:33:39;7.15;;;1.83;;
1436;SDS011;712;51.026;13.792;2023-07-13T17:36:09;4.53;;;1.75;;
1436;SDS011;712;51.026;13.792;2023-07-13T17:38:39;6.30;;;2.50;;
1436;SDS011;712;51.026;13.792;2023-07-13T17:41:06;5.38;;;1.67;;
1436;SDS011;712;51.026;13.792;2023-07-13T17:43:33;7.45;;;1.70;;
1436;SDS011;712;51.026;13.792;2023-07-13T17:45:58;4.90;;;1.60;;